Aérodrome :
LOGIN :

S'inscrire | Disclaimer

   EN    FR    IT 

 










Légende :    VFR   VFR Marginal   IFR   IFR Intensif   IFR Très Intensif
Visi : 
Plafond : 
>= 8 km
>= 3000ft
5 à 8 km
1000 à 3000 ft
1500m à 5 km
500 à 1000 ft
800 à 1500m
200 à 500 ft
< 800m
< 200 ft
Symboles :   Orages  Brouillard  Fortes neiges  Fortes précipitations  Vent > 20 kt
SIGMETs :   Divers  Orages  Givrage  Turbulence  Onde Orograph.  Cendres Volcan.






- Altitude de l'aérodrome : 70 ft
- Code IATA : LEI


LEAM - Almeria

DERNIER METAR :
  • 281200Z 09015KT 060V130 9999 SCT050 18/06 Q1017

METARs EXPIRÉS :
  • 281130Z 08015KT 050V110 9999 FEW045 18/06 Q1017
  • 281100Z 08017KT 050V120 9999 FEW040 17/06 Q1017
  • 281030Z 07015KT 050V110 9999 FEW040 17/06 Q1017
  • 281000Z VRB03KT 9999 FEW040 16/07 Q1017
  • 280930Z 31005KT 290V360 9999 FEW015 13/09 Q1017

TAF AMD TAF LEAM
Valide du 28 à 09h jusqu'au 29 à 09h UTC


280854Z 2809/2909 33005KT 9999 SCT020 BKN050 TX18/2814Z TN10/2906Z
BECMG 2809/2811 09015KT
PROB30
TEMPO 2809/2811 4000 RA
BECMG 2819/2822 35008KT



MET'MAP, la Météo Aéronautique d'un coup d'oeil ! - Copyright ORBIFLY Décembre 2007 - Disclaimer

ORBIFLY MET'MAP TEAM :

Programmation & Développement : Alexandra Zaïnal
Sur une idée originale de : Baudouin d'Aumeries
Assistance à la programmation : Marc-Olivier Méhu
Soutien technique & logistique : Manuel Goepfert

Contact : metmap@orbifly.com




SOURCES & CREDITS :

   NOAA